createdAt,value
2023-04-14T00:00:18.540Z,44
2023-04-14T00:01:25.613Z,44
2023-04-14T00:02:32.764Z,45
2023-04-14T00:03:39.868Z,42
2023-04-14T00:04:47.007Z,44
2023-04-14T00:05:56.923Z,47
2023-04-14T00:07:04.078Z,59
2023-04-14T00:08:11.094Z,58
2023-04-14T00:09:18.203Z,56
2023-04-14T00:10:25.216Z,43
2023-04-14T00:11:35.897Z,40
2023-04-14T00:12:45.184Z,46
2023-04-14T00:13:53.988Z,41
2023-04-14T00:15:04.495Z,39
2023-04-14T00:16:11.823Z,43
2023-04-14T00:17:19.097Z,42
2023-04-14T00:18:26.060Z,40
2023-04-14T00:19:35.536Z,42
2023-04-14T00:20:42.535Z,40
2023-04-14T00:21:49.630Z,42
2023-04-14T00:22:56.748Z,44
2023-04-14T00:24:03.860Z,39
2023-04-14T00:25:10.942Z,42
2023-04-14T00:26:22.450Z,43
2023-04-14T00:27:32.478Z,41
2023-04-14T00:28:43.630Z,41
2023-04-14T00:29:50.929Z,27
2023-04-14T00:31:01.950Z,39
2023-04-14T00:32:09.702Z,42
2023-04-14T00:33:16.985Z,42
2023-04-14T00:34:24.052Z,25
2023-04-14T00:35:32.941Z,39
2023-04-14T00:36:39.994Z,38
2023-04-14T00:37:47.077Z,40
2023-04-14T00:38:54.294Z,36
2023-04-14T00:40:01.401Z,40
2023-04-14T00:41:08.821Z,43
2023-04-14T00:42:15.852Z,37
2023-04-14T00:43:22.861Z,28
2023-04-14T00:44:29.975Z,26
2023-04-14T00:45:37.156Z,25
2023-04-14T00:46:49.146Z,25
2023-04-14T00:47:56.308Z,43
2023-04-14T00:49:03.639Z,48
2023-04-14T00:50:10.408Z,37
2023-04-14T00:51:17.477Z,42
2023-04-14T00:52:25.430Z,45
2023-04-14T00:53:32.611Z,36
2023-04-14T00:54:39.736Z,32
2023-04-14T00:55:50.905Z,30
2023-04-14T00:56:58.052Z,39
2023-04-14T00:58:05.070Z,33
2023-04-14T00:59:12.430Z,40
2023-04-14T01:00:19.430Z,40
2023-04-14T01:01:26.588Z,35
2023-04-14T01:02:33.947Z,42
2023-04-14T01:03:44.948Z,45
2023-04-14T01:04:54.517Z,44
2023-04-14T01:05:58.987Z,35
2023-04-14T01:07:09.143Z,34
2023-04-14T01:08:16.201Z,37
2023-04-14T01:09:23.280Z,27
2023-04-14T01:10:30.450Z,33
2023-04-14T01:11:37.521Z,31
2023-04-14T01:12:50.430Z,33
2023-04-14T01:14:05.360Z,31
2023-04-14T01:15:18.186Z,30
2023-04-14T01:16:25.288Z,29
2023-04-14T01:17:35.504Z,25
2023-04-14T01:18:56.531Z,29
2023-04-14T01:20:13.806Z,31
2023-04-14T01:21:27.982Z,32
2023-04-14T01:22:35.084Z,32
2023-04-14T01:23:42.216Z,31
2023-04-14T01:24:52.059Z,27
2023-04-14T01:26:09.599Z,28
2023-04-14T01:27:19.458Z,29
2023-04-14T01:28:36.710Z,33
2023-04-14T01:29:54.154Z,34
2023-04-14T01:31:04.360Z,36
2023-04-14T01:32:16.514Z,29
2023-04-14T01:33:23.660Z,37
2023-04-14T01:34:31.576Z,33
2023-04-14T01:35:38.770Z,28
2023-04-14T01:36:51.395Z,30
2023-04-14T01:38:01.312Z,27
2023-04-14T01:39:08.494Z,28
2023-04-14T01:40:15.647Z,25
2023-04-14T01:41:22.733Z,34
2023-04-14T01:42:29.792Z,33
2023-04-14T01:43:36.966Z,33
2023-04-14T01:44:44.087Z,35
2023-04-14T01:45:51.171Z,38
2023-04-14T01:46:58.318Z,34
2023-04-14T01:48:05.646Z,25
2023-04-14T01:49:14.290Z,37
2023-04-14T01:50:21.479Z,42
2023-04-14T01:51:28.614Z,29
2023-04-14T01:52:39.470Z,30
2023-04-14T01:53:46.574Z,31
2023-04-14T01:54:53.783Z,28
2023-04-14T01:56:00.879Z,29
2023-04-14T01:57:08.181Z,29
2023-04-14T01:58:15.222Z,25
2023-04-14T01:59:22.328Z,27
2023-04-14T02:00:29.568Z,33
2023-04-14T02:01:36.775Z,27
2023-04-14T02:02:43.938Z,28
2023-04-14T02:03:51.049Z,30
2023-04-14T02:04:59.064Z,26
2023-04-14T02:06:06.174Z,29
2023-04-14T02:07:13.293Z,29
2023-04-14T02:08:20.506Z,33
2023-04-14T02:09:27.673Z,32
2023-04-14T02:10:38.992Z,30
2023-04-14T02:11:46.212Z,28
2023-04-14T02:12:53.315Z,29
2023-04-14T02:14:05.441Z,31
2023-04-14T02:15:17.002Z,25
2023-04-14T02:16:24.356Z,25
2023-04-14T02:17:34.817Z,31
2023-04-14T02:18:42.027Z,32
2023-04-14T02:19:49.234Z,27
2023-04-14T02:20:56.343Z,29
2023-04-14T02:22:03.495Z,29
2023-04-14T02:23:10.654Z,25
2023-04-14T02:24:17.782Z,29
2023-04-14T02:25:28.510Z,26
2023-04-14T02:26:37.810Z,26
2023-04-14T02:27:45.003Z,30
2023-04-14T02:28:57.273Z,27
2023-04-14T02:30:14.502Z,30
2023-04-14T02:31:21.710Z,29
2023-04-14T02:32:28.845Z,35
2023-04-14T02:33:38.652Z,33
2023-04-14T02:34:45.697Z,28
2023-04-14T02:36:02.624Z,31
2023-04-14T02:37:17.536Z,34
2023-04-14T02:38:24.774Z,26
2023-04-14T02:39:36.932Z,29
2023-04-14T02:40:44.173Z,32
2023-04-14T02:41:52.253Z,30
2023-04-14T02:43:05.317Z,32
2023-04-14T02:44:15.206Z,27
2023-04-14T02:45:26.008Z,27
2023-04-14T02:46:33.441Z,25
2023-04-14T02:47:43.528Z,30
2023-04-14T02:48:52.841Z,28
2023-04-14T02:50:02.796Z,28
2023-04-14T02:51:10.233Z,34
2023-04-14T02:52:17.849Z,29
2023-04-14T02:53:24.771Z,28
2023-04-14T02:54:31.724Z,31
2023-04-14T02:55:39.699Z,32
2023-04-14T02:56:46.743Z,40
2023-04-14T02:57:53.827Z,43
2023-04-14T02:59:00.917Z,41
2023-04-14T03:00:07.738Z,43
2023-04-14T03:01:14.879Z,39
2023-04-14T03:02:21.984Z,40
2023-04-14T03:03:28.929Z,34
2023-04-14T03:04:35.919Z,41
2023-04-14T03:05:43.570Z,35
2023-04-14T03:06:50.511Z,39
2023-04-14T03:07:57.485Z,34
2023-04-14T03:09:09.407Z,31
2023-04-14T03:10:16.359Z,30
2023-04-14T03:11:23.422Z,36
2023-04-14T03:12:30.363Z,30
2023-04-14T03:13:37.254Z,31
2023-04-14T03:14:44.193Z,30
2023-04-14T03:15:51.225Z,35
2023-04-14T03:16:58.160Z,40
2023-04-14T03:18:06.528Z,33
2023-04-14T03:19:13.460Z,37
2023-04-14T03:20:21.511Z,34
2023-04-14T03:21:28.451Z,37
2023-04-14T03:22:35.641Z,31
2023-04-14T03:23:47.059Z,31
2023-04-14T03:24:54.792Z,34
2023-04-14T03:26:04.807Z,34
2023-04-14T03:27:11.808Z,30
2023-04-14T03:28:18.803Z,36
2023-04-14T03:29:29.960Z,43
2023-04-14T03:30:36.928Z,40
2023-04-14T03:31:44.057Z,39
2023-04-14T03:32:50.870Z,49
2023-04-14T03:33:57.762Z,47
2023-04-14T03:35:08.967Z,39
2023-04-14T03:36:15.977Z,44
2023-04-14T03:37:23.006Z,44
2023-04-14T03:38:33.627Z,39
2023-04-14T03:39:44.683Z,39
2023-04-14T03:40:51.757Z,42
2023-04-14T03:41:58.782Z,39
2023-04-14T03:43:05.714Z,37
2023-04-14T03:44:12.654Z,42
2023-04-14T03:45:19.628Z,36
2023-04-14T03:46:26.596Z,41
2023-04-14T03:47:34.447Z,36
2023-04-14T03:48:41.430Z,37
2023-04-14T03:49:48.375Z,34
2023-04-14T03:50:55.432Z,35
2023-04-14T03:52:02.355Z,43
2023-04-14T03:53:09.483Z,39
2023-04-14T03:54:16.474Z,37
2023-04-14T03:55:23.379Z,39
2023-04-14T03:56:30.331Z,39
2023-04-14T03:57:40.635Z,37
2023-04-14T03:58:47.637Z,25
2023-04-14T03:59:57.010Z,44
2023-04-14T04:01:05.866Z,25
2023-04-14T04:02:12.877Z,46
2023-04-14T04:03:23.070Z,43
2023-04-14T04:04:29.942Z,43
2023-04-14T04:05:36.866Z,46
2023-04-14T04:06:43.823Z,25
2023-04-14T04:07:52.001Z,29
2023-04-14T04:08:59.229Z,31
2023-04-14T04:10:05.994Z,26
2023-04-14T04:11:13.012Z,31
2023-04-14T04:12:20.006Z,44
2023-04-14T04:13:26.895Z,37
2023-04-14T04:14:33.807Z,28
2023-04-14T04:15:40.708Z,39
2023-04-14T04:16:47.791Z,31
2023-04-14T04:17:54.716Z,44
2023-04-14T04:19:01.905Z,27
2023-04-14T04:20:08.590Z,41
2023-04-14T04:21:15.526Z,36
2023-04-14T04:22:22.547Z,42
2023-04-14T04:23:29.923Z,28
2023-04-14T04:24:36.935Z,47
2023-04-14T04:25:43.910Z,41
2023-04-14T04:26:52.219Z,45
2023-04-14T04:27:59.151Z,46
2023-04-14T04:29:06.194Z,36
2023-04-14T04:30:13.179Z,29
2023-04-14T04:31:20.944Z,54
2023-04-14T04:32:28.354Z,47
2023-04-14T04:33:35.066Z,48
2023-04-14T04:34:42.050Z,45
2023-04-14T04:35:48.973Z,44
2023-04-14T04:36:55.908Z,27
2023-04-14T04:38:05.841Z,33
2023-04-14T04:39:15.978Z,42
2023-04-14T04:40:22.915Z,51
2023-04-14T04:41:29.832Z,37
2023-04-14T04:42:39.667Z,45
2023-04-14T04:43:49.139Z,43
2023-04-14T04:44:56.152Z,50
2023-04-14T04:46:05.631Z,48
2023-04-14T04:47:15.298Z,47
2023-04-14T04:48:25.521Z,39
2023-04-14T04:49:32.534Z,46
2023-04-14T04:50:39.649Z,43
2023-04-14T04:51:46.706Z,41
2023-04-14T04:52:53.553Z,31
2023-04-14T04:54:00.553Z,30
2023-04-14T04:55:07.570Z,38
2023-04-14T04:56:14.630Z,52
2023-04-14T04:57:24.669Z,54
2023-04-14T04:58:35.324Z,50
2023-04-14T04:59:46.432Z,53
2023-04-14T05:00:53.398Z,57
2023-04-14T05:02:01.399Z,59
2023-04-14T05:03:08.078Z,66
2023-04-14T05:04:18.193Z,62
2023-04-14T05:05:26.615Z,63
2023-04-14T05:06:33.743Z,65
2023-04-14T05:07:43.639Z,65
2023-04-14T05:08:50.613Z,72
2023-04-14T05:09:57.940Z,70
2023-04-14T05:11:05.032Z,75
2023-04-14T05:12:12.030Z,78
2023-04-14T05:13:19.005Z,74
2023-04-14T05:14:27.481Z,71
2023-04-14T05:15:32.944Z,73
2023-04-14T05:16:39.969Z,77
2023-04-14T05:17:46.983Z,86
2023-04-14T05:19:01.748Z,82
2023-04-14T05:20:08.818Z,86
2023-04-14T05:21:16.113Z,83
2023-04-14T05:22:24.678Z,87
2023-04-14T05:23:35.532Z,89
2023-04-14T05:24:43.727Z,89
2023-04-14T05:25:53.454Z,89
2023-04-14T05:27:13.535Z,88
2023-04-14T05:28:09.498Z,86
2023-04-14T05:29:16.538Z,88
2023-04-14T05:30:23.411Z,92
2023-04-14T05:31:30.475Z,90
2023-04-14T05:32:37.750Z,91
2023-04-14T05:33:45.613Z,94
2023-04-14T05:34:52.567Z,98
2023-04-14T05:35:59.478Z,93
2023-04-14T05:37:06.634Z,90
2023-04-14T05:38:13.665Z,83
2023-04-14T05:39:20.597Z,93
2023-04-14T05:40:27.633Z,86
2023-04-14T05:41:34.636Z,82
2023-04-14T05:42:41.644Z,69
2023-04-14T05:43:50.495Z,69
2023-04-14T05:44:57.521Z,74
2023-04-14T05:46:04.476Z,75
2023-04-14T05:47:11.395Z,86
2023-04-14T05:48:18.348Z,86
2023-04-14T05:49:25.246Z,70
2023-04-14T05:50:32.218Z,81
2023-04-14T05:51:39.175Z,72
2023-04-14T05:52:46.144Z,79
2023-04-14T05:53:53.108Z,79
2023-04-14T05:54:59.986Z,62
2023-04-14T05:56:10.615Z,79
2023-04-14T05:57:20.405Z,60
2023-04-14T05:58:28.361Z,71
2023-04-14T05:59:35.370Z,62
2023-04-14T06:01:49.040Z,53
2023-04-14T06:03:00.048Z,78
2023-04-14T06:04:07.871Z,76
2023-04-14T06:06:20.852Z,67
2023-04-14T06:07:27.948Z,71
2023-04-14T06:08:34.838Z,52
2023-04-14T06:09:41.760Z,63
2023-04-14T06:10:48.628Z,51
2023-04-14T06:11:55.707Z,68
2023-04-14T06:13:07.056Z,76
2023-04-14T06:14:14.468Z,70
2023-04-14T06:15:24.801Z,71
2023-04-14T06:16:34.732Z,58
2023-04-14T06:17:45.627Z,48
2023-04-14T06:18:53.366Z,54
2023-04-14T06:20:00.393Z,63
2023-04-14T06:21:10.780Z,42
2023-04-14T06:22:17.766Z,44
2023-04-14T06:23:24.761Z,40
2023-04-14T06:24:31.718Z,40
2023-04-14T06:25:38.874Z,63
2023-04-14T06:26:46.073Z,47
2023-04-14T06:27:52.940Z,50
2023-04-14T06:29:00.381Z,34
2023-04-14T06:30:07.215Z,35
2023-04-14T06:31:14.435Z,56
2023-04-14T06:32:21.542Z,44
2023-04-14T06:33:28.382Z,54
2023-04-14T06:34:35.520Z,38
2023-04-14T06:35:42.894Z,54
2023-04-14T06:36:49.987Z,48
2023-04-14T06:37:57.043Z,59
2023-04-14T06:39:07.141Z,49
2023-04-14T06:40:19.434Z,47
2023-04-14T06:41:26.552Z,52
2023-04-14T06:42:33.450Z,56
2023-04-14T06:43:40.474Z,35
2023-04-14T06:44:48.587Z,44
2023-04-14T06:45:55.689Z,36
2023-04-14T06:47:02.590Z,38
2023-04-14T06:48:09.686Z,39
2023-04-14T06:49:16.558Z,31
2023-04-14T06:50:23.478Z,25
2023-04-14T06:51:31.436Z,26
2023-04-14T06:52:38.319Z,42
2023-04-14T06:53:45.425Z,32
2023-04-14T06:54:52.412Z,39
2023-04-14T06:55:59.858Z,31
2023-04-14T06:57:07.361Z,36
2023-04-14T06:58:15.378Z,34
2023-04-14T06:59:22.467Z,25
2023-04-14T07:00:29.423Z,27
2023-04-14T07:01:36.529Z,34
2023-04-14T07:02:43.481Z,32
2023-04-14T07:03:50.407Z,45
2023-04-14T07:04:57.318Z,34
2023-04-14T07:06:04.633Z,51
2023-04-14T07:07:12.658Z,49
2023-04-14T07:08:19.660Z,45
2023-04-14T07:09:27.657Z,27
2023-04-14T07:10:34.617Z,36
2023-04-14T07:11:41.514Z,36
2023-04-14T07:12:48.568Z,26
2023-04-14T07:13:55.532Z,40
2023-04-14T07:15:02.585Z,36
2023-04-14T07:16:09.945Z,28
2023-04-14T07:17:16.985Z,25
2023-04-14T07:18:23.952Z,25
2023-04-14T07:19:30.817Z,26
2023-04-14T07:20:37.770Z,27
2023-04-14T07:21:45.372Z,25
2023-04-14T07:22:55.310Z,25
2023-04-14T07:24:02.403Z,30
2023-04-14T07:25:13.318Z,31
2023-04-14T07:26:24.453Z,34
2023-04-14T07:27:32.407Z,32
2023-04-14T07:28:39.511Z,34
2023-04-14T07:29:46.557Z,29
2023-04-14T07:30:53.506Z,27
2023-04-14T07:32:00.350Z,39
2023-04-14T07:33:07.435Z,26
2023-04-14T07:34:14.489Z,39
2023-04-14T07:35:22.245Z,27
2023-04-14T07:36:29.784Z,30
2023-04-14T07:37:36.693Z,31
2023-04-14T07:38:43.796Z,31
2023-04-14T07:39:50.998Z,44
2023-04-14T07:40:57.971Z,39
2023-04-14T07:42:08.798Z,36
2023-04-14T07:43:16.315Z,37
2023-04-14T07:44:23.185Z,29
2023-04-14T07:45:30.169Z,32
2023-04-14T07:46:37.161Z,29
2023-04-14T07:47:44.088Z,30
2023-04-14T07:48:51.062Z,35
2023-04-14T07:49:58.015Z,36
2023-04-14T07:51:04.964Z,34
2023-04-14T07:52:11.868Z,32
2023-04-14T07:53:18.953Z,31
2023-04-14T07:54:28.776Z,33
2023-04-14T07:55:38.929Z,36
2023-04-14T07:56:46.009Z,32
2023-04-14T07:57:53.710Z,26
2023-04-14T07:59:00.803Z,31
2023-04-14T08:00:08.405Z,48
2023-04-14T08:01:16.435Z,35
2023-04-14T08:02:23.487Z,43
2023-04-14T08:03:30.509Z,36
2023-04-14T08:04:37.514Z,40
2023-04-14T08:05:48.955Z,33
2023-04-14T08:06:56.145Z,30
2023-04-14T08:08:03.129Z,31
2023-04-14T08:09:12.110Z,32
2023-04-14T08:10:19.053Z,31
2023-04-14T08:11:29.050Z,38
2023-04-14T08:12:36.058Z,34
2023-04-14T08:13:43.141Z,34
2023-04-14T08:14:51.312Z,28
2023-04-14T08:16:01.137Z,30
2023-04-14T08:17:08.023Z,28
2023-04-14T08:18:15.086Z,27
2023-04-14T08:19:22.023Z,33
2023-04-14T08:20:30.721Z,26
2023-04-14T08:21:37.666Z,32
2023-04-14T08:22:48.397Z,30
2023-04-14T08:23:55.427Z,37
2023-04-14T08:25:02.382Z,28
2023-04-14T08:26:09.323Z,25
2023-04-14T08:27:18.723Z,30
2023-04-14T08:28:25.692Z,30
2023-04-14T08:29:32.726Z,27
2023-04-14T08:30:39.898Z,33
2023-04-14T08:31:46.818Z,28
2023-04-14T08:32:53.599Z,31
2023-04-14T08:34:00.404Z,36
2023-04-14T08:35:36.416Z,44
2023-04-14T08:36:16.362Z,27
2023-04-14T08:37:25.538Z,33
2023-04-14T08:38:32.549Z,35
2023-04-14T08:39:39.436Z,31
2023-04-14T08:40:46.414Z,32
2023-04-14T08:41:55.313Z,29
2023-04-14T08:43:02.358Z,35
2023-04-14T08:44:11.696Z,36
2023-04-14T08:45:23.244Z,38
2023-04-14T08:46:30.170Z,33
2023-04-14T08:47:40.344Z,38
2023-04-14T08:48:47.407Z,46
2023-04-14T08:49:59.373Z,49
2023-04-14T08:51:11.751Z,43
2023-04-14T08:52:28.977Z,45
2023-04-14T08:53:37.021Z,37
2023-04-14T08:54:43.969Z,39
2023-04-14T08:55:53.993Z,38
2023-04-14T08:57:00.663Z,35
2023-04-14T08:58:08.777Z,42
2023-04-14T08:59:17.802Z,46
2023-04-14T09:00:24.823Z,54
2023-04-14T09:01:33.132Z,43
2023-04-14T09:02:38.831Z,44
2023-04-14T09:03:45.902Z,50
2023-04-14T09:04:57.457Z,46
2023-04-14T09:06:07.638Z,44
2023-04-14T09:07:15.665Z,45
2023-04-14T09:08:22.546Z,60
2023-04-14T09:09:30.484Z,60
2023-04-14T09:10:37.417Z,63
2023-04-14T09:11:47.485Z,64
2023-04-14T09:12:54.319Z,57
2023-04-14T09:14:01.403Z,67
2023-04-14T09:15:08.502Z,79
2023-04-14T09:16:19.839Z,75
2023-04-14T09:17:26.753Z,83
2023-04-14T09:18:34.486Z,72
2023-04-14T09:20:34.383Z,75
2023-04-14T09:21:29.733Z,72
2023-04-14T09:21:58.230Z,71
2023-04-14T09:23:06.866Z,71
2023-04-14T09:24:17.018Z,73
2023-04-14T09:25:23.899Z,77
2023-04-14T09:26:30.906Z,71
2023-04-14T09:27:37.968Z,74
2023-04-14T09:28:45.724Z,79
2023-04-14T09:29:52.731Z,78
2023-04-14T09:30:59.616Z,85
2023-04-14T09:32:06.539Z,79
2023-04-14T09:33:13.510Z,86
2023-04-14T09:34:29.766Z,89
2023-04-14T09:35:37.790Z,81
2023-04-14T09:36:47.471Z,90
2023-04-14T09:38:02.329Z,90
2023-04-14T09:39:09.232Z,90
2023-04-14T09:40:19.206Z,90
2023-04-14T09:41:33.450Z,89
2023-04-14T09:42:40.397Z,92
2023-04-14T09:43:50.000Z,93
2023-04-14T09:44:56.893Z,104
2023-04-14T09:46:03.760Z,100
2023-04-14T09:47:10.700Z,101
2023-04-14T09:48:17.647Z,106
2023-04-14T09:49:24.560Z,102
2023-04-14T09:50:32.953Z,108
2023-04-14T09:51:49.660Z,112
2023-04-14T09:52:56.704Z,120
2023-04-14T09:54:06.988Z,117
2023-04-14T09:55:13.613Z,110
2023-04-14T09:56:21.619Z,107
2023-04-14T09:57:32.588Z,105
2023-04-14T09:58:39.528Z,103
2023-04-14T09:59:46.449Z,99
2023-04-14T10:00:53.417Z,100
2023-04-14T10:02:00.482Z,97
2023-04-14T10:03:07.522Z,98
2023-04-14T10:04:14.319Z,95
2023-04-14T10:05:27.276Z,101
2023-04-14T10:06:35.242Z,88
2023-04-14T10:07:42.259Z,92
2023-04-14T10:08:54.020Z,87
2023-04-14T10:10:01.053Z,77
2023-04-14T10:11:10.948Z,73
2023-04-14T10:12:20.790Z,75
2023-04-14T10:13:28.154Z,74
2023-04-14T10:14:35.153Z,86
2023-04-14T10:15:47.663Z,68
2023-04-14T10:16:54.604Z,70
2023-04-14T10:18:01.598Z,68
2023-04-14T10:19:08.650Z,66
2023-04-14T10:20:15.611Z,50
2023-04-14T10:21:22.611Z,66
2023-04-14T10:22:30.109Z,65
2023-04-14T10:23:39.767Z,47
2023-04-14T10:24:46.729Z,54
2023-04-14T10:25:53.695Z,45
2023-04-14T10:27:01.436Z,46
2023-04-14T10:28:08.358Z,36
2023-04-14T10:29:15.965Z,43
2023-04-14T10:30:23.766Z,32
2023-04-14T10:31:30.861Z,32
2023-04-14T10:32:45.742Z,34
2023-04-14T10:33:52.675Z,25
2023-04-14T10:35:03.148Z,27
2023-04-14T10:36:14.780Z,40
2023-04-14T10:37:27.618Z,25
2023-04-14T10:38:34.517Z,26
2023-04-14T10:39:41.413Z,26
2023-04-14T10:40:48.201Z,25
2023-04-14T10:41:55.080Z,29
2023-04-14T10:43:01.949Z,29
2023-04-14T10:44:08.738Z,34
2023-04-14T10:45:25.804Z,30
2023-04-14T10:46:33.286Z,26
2023-04-14T10:47:47.757Z,30
2023-04-14T10:48:54.607Z,37
2023-04-14T10:50:01.539Z,25
2023-04-14T10:51:13.497Z,27
2023-04-14T10:52:20.368Z,26
2023-04-14T10:53:29.807Z,32
2023-04-14T10:54:41.813Z,39
2023-04-14T10:55:56.415Z,37
2023-04-14T10:57:03.188Z,25
2023-04-14T10:58:15.793Z,28
2023-04-14T10:59:22.678Z,38
2023-04-14T11:00:29.476Z,27
2023-04-14T11:01:36.452Z,25
2023-04-14T11:02:43.414Z,35
2023-04-14T11:03:55.375Z,32
2023-04-14T11:05:03.941Z,37
2023-04-14T11:06:11.320Z,42
2023-04-14T11:07:18.346Z,34
2023-04-14T11:08:25.202Z,30
2023-04-14T11:09:32.120Z,36
2023-04-14T11:10:41.988Z,27
2023-04-14T11:11:52.099Z,28
2023-04-14T11:12:59.051Z,35
2023-04-14T11:14:05.871Z,30
2023-04-14T11:15:15.548Z,28
2023-04-14T11:16:22.498Z,25
2023-04-14T11:17:32.392Z,25
2023-04-14T11:18:43.426Z,25
2023-04-14T11:19:49.675Z,28
2023-04-14T11:20:56.511Z,38
2023-04-14T11:22:09.296Z,30
2023-04-14T11:23:16.209Z,25
2023-04-14T11:24:23.162Z,43
2023-04-14T11:25:30.003Z,32
2023-04-14T11:26:36.926Z,42
2023-04-14T11:27:43.762Z,40
2023-04-14T11:28:50.568Z,25
2023-04-14T11:29:58.297Z,38
2023-04-14T11:31:05.267Z,25
2023-04-14T11:32:12.251Z,30
2023-04-14T11:33:19.126Z,28
2023-04-14T11:34:25.942Z,25
2023-04-14T11:35:33.903Z,26
2023-04-14T11:36:40.907Z,30
2023-04-14T11:37:47.842Z,35
2023-04-14T11:38:57.419Z,30
2023-04-14T11:40:07.078Z,28
2023-04-14T11:41:15.018Z,40
2023-04-14T11:42:22.835Z,26
2023-04-14T11:43:29.714Z,29
2023-04-14T11:44:36.786Z,29
2023-04-14T11:45:44.026Z,27
2023-04-14T11:46:50.794Z,25
2023-04-14T11:47:58.847Z,25
2023-04-14T11:49:05.634Z,25
2023-04-14T11:50:12.549Z,25
2023-04-14T11:51:19.528Z,32
2023-04-14T11:52:31.447Z,32
2023-04-14T11:53:38.436Z,26
2023-04-14T11:54:45.546Z,33
2023-04-14T11:55:53.262Z,27
2023-04-14T11:57:00.176Z,35
2023-04-14T11:58:07.071Z,28
2023-04-14T11:59:14.092Z,36
2023-04-14T12:00:21.125Z,36
2023-04-14T12:01:30.981Z,35
2023-04-14T12:02:39.083Z,33
2023-04-14T12:03:45.986Z,25
2023-04-14T12:04:53.119Z,32
2023-04-14T12:05:59.748Z,25
2023-04-14T12:07:06.699Z,26
2023-04-14T12:08:13.578Z,33
2023-04-14T12:09:20.446Z,33
2023-04-14T12:10:29.015Z,31
2023-04-14T12:11:35.938Z,31
2023-04-14T12:12:42.813Z,40
2023-04-14T12:13:49.748Z,33
2023-04-14T12:14:56.606Z,31
2023-04-14T12:16:08.170Z,27
2023-04-14T12:17:16.091Z,28
2023-04-14T12:18:23.218Z,25
2023-04-14T12:19:30.486Z,25
2023-04-14T12:20:37.414Z,31
2023-04-14T12:21:49.412Z,34
2023-04-14T12:22:56.272Z,29
2023-04-14T12:24:06.048Z,25
2023-04-14T12:25:13.070Z,41
2023-04-14T12:26:20.152Z,28
2023-04-14T12:27:27.072Z,30
2023-04-14T12:28:35.681Z,30
2023-04-14T12:29:45.597Z,25
2023-04-14T12:30:53.585Z,25
2023-04-14T12:32:00.985Z,26
2023-04-14T12:33:15.405Z,31
2023-04-14T12:34:23.504Z,25
2023-04-14T12:35:30.419Z,25
2023-04-14T12:36:49.417Z,31
2023-04-14T12:37:44.194Z,31
2023-04-14T12:38:51.844Z,25
2023-04-14T12:39:58.802Z,36
2023-04-14T12:41:05.699Z,32
2023-04-14T12:42:12.657Z,31
2023-04-14T12:43:22.226Z,36
2023-04-14T12:44:38.831Z,34
2023-04-14T12:45:46.342Z,30
2023-04-14T12:46:54.216Z,29
2023-04-14T12:48:07.443Z,25
2023-04-14T12:49:16.950Z,28
2023-04-14T12:50:34.048Z,30
2023-04-14T12:51:41.973Z,28
2023-04-14T12:52:49.169Z,34
2023-04-14T12:53:56.127Z,34
2023-04-14T12:55:03.249Z,32
2023-04-14T12:56:14.596Z,33
2023-04-14T12:57:21.533Z,25
2023-04-14T12:58:31.740Z,35
2023-04-14T12:59:39.037Z,30
2023-04-14T13:00:45.999Z,25
2023-04-14T13:01:52.867Z,27
2023-04-14T13:03:02.551Z,38
2023-04-14T13:04:09.362Z,28
2023-04-14T13:05:17.641Z,31
2023-04-14T13:06:24.685Z,25
2023-04-14T13:07:31.760Z,26
2023-04-14T13:08:38.755Z,34
2023-04-14T13:09:45.727Z,25
2023-04-14T13:10:55.223Z,31
2023-04-14T13:12:03.024Z,35
2023-04-14T13:13:09.932Z,26
2023-04-14T13:14:16.833Z,25
2023-04-14T13:15:31.144Z,30
2023-04-14T13:16:36.483Z,33
2023-04-14T13:17:46.584Z,44
2023-04-14T13:19:00.031Z,37
2023-04-14T13:20:07.857Z,31
2023-04-14T13:21:15.614Z,34
2023-04-14T13:22:22.733Z,27
2023-04-14T13:23:30.705Z,25
2023-04-14T13:24:37.760Z,38
2023-04-14T13:25:45.756Z,29
2023-04-14T13:26:59.227Z,32
2023-04-14T13:28:15.632Z,25
2023-04-14T13:29:23.906Z,25
2023-04-14T13:30:33.213Z,33
2023-04-14T13:31:40.236Z,30
2023-04-14T13:32:47.157Z,37
2023-04-14T13:33:56.201Z,35
2023-04-14T13:35:03.172Z,42
2023-04-14T13:36:10.319Z,45
2023-04-14T13:37:19.022Z,37
2023-04-14T13:38:25.970Z,46
2023-04-14T13:39:32.760Z,35
2023-04-14T13:40:39.648Z,29
2023-04-14T13:41:46.503Z,33
2023-04-14T13:42:53.504Z,31
2023-04-14T13:44:00.614Z,32
2023-04-14T13:45:08.790Z,32
2023-04-14T13:46:16.601Z,28
2023-04-14T13:47:22.932Z,28
2023-04-14T13:48:32.343Z,31
2023-04-14T13:49:40.093Z,33
2023-04-14T13:50:47.456Z,33
2023-04-14T13:51:54.429Z,25
2023-04-14T13:53:02.454Z,36
2023-04-14T13:54:09.381Z,34
2023-04-14T13:55:20.441Z,29
2023-04-14T13:56:30.417Z,29
2023-04-14T13:57:37.432Z,30
2023-04-14T13:58:44.351Z,27
2023-04-14T13:59:51.262Z,36
2023-04-14T14:00:58.300Z,28
2023-04-14T14:02:05.588Z,27
2023-04-14T14:03:12.456Z,31
2023-04-14T14:04:19.290Z,25
2023-04-14T14:05:25.975Z,32
2023-04-14T14:06:32.895Z,36
2023-04-14T14:07:41.537Z,28
2023-04-14T14:08:48.527Z,45
2023-04-14T14:10:06.651Z,28
2023-04-14T14:11:13.816Z,27
2023-04-14T14:12:21.493Z,26
2023-04-14T14:13:30.751Z,25
2023-04-14T14:14:41.054Z,27
2023-04-14T14:15:49.868Z,26
2023-04-14T14:16:56.767Z,30
2023-04-14T14:18:03.684Z,25
2023-04-14T14:19:11.547Z,27
2023-04-14T14:20:22.827Z,28
2023-04-14T14:21:29.816Z,36
2023-04-14T14:22:36.829Z,33
2023-04-14T14:23:43.661Z,31
2023-04-14T14:24:50.701Z,27
2023-04-14T14:26:01.049Z,32
2023-04-14T14:27:08.062Z,25
2023-04-14T14:28:14.920Z,29
2023-04-14T14:29:23.959Z,37
2023-04-14T14:30:31.663Z,26
2023-04-14T14:31:42.607Z,28
2023-04-14T14:32:50.290Z,25
2023-04-14T14:33:59.890Z,30
2023-04-14T14:35:06.555Z,26
2023-04-14T14:36:13.576Z,26
2023-04-14T14:37:20.504Z,27
2023-04-14T14:38:27.392Z,27
2023-04-14T14:39:34.135Z,26
2023-04-14T14:40:41.974Z,27
2023-04-14T14:41:51.449Z,29
2023-04-14T14:42:59.173Z,28
2023-04-14T14:44:07.857Z,31
2023-04-14T14:45:14.782Z,29
2023-04-14T14:46:21.587Z,28
2023-04-14T14:47:28.569Z,29
2023-04-14T14:48:35.315Z,34
2023-04-14T14:49:52.918Z,41
2023-04-14T14:50:49.163Z,34
2023-04-14T14:51:56.026Z,46
2023-04-14T14:53:02.746Z,42
2023-04-14T14:54:10.593Z,47
2023-04-14T14:55:17.255Z,51
2023-04-14T14:56:25.975Z,54
2023-04-14T14:57:32.822Z,46
2023-04-14T14:58:39.675Z,57
2023-04-14T14:59:46.632Z,45
2023-04-14T15:00:53.532Z,46
2023-04-14T15:02:00.561Z,57
2023-04-14T15:03:08.244Z,51
2023-04-14T15:04:15.145Z,44
2023-04-14T15:05:21.912Z,51
2023-04-14T15:06:28.806Z,52
2023-04-14T15:07:35.639Z,58
2023-04-14T15:08:42.499Z,55
2023-04-14T15:09:49.408Z,63
2023-04-14T15:10:57.756Z,54
2023-04-14T15:12:04.617Z,61
2023-04-14T15:13:11.605Z,57
2023-04-14T15:14:18.478Z,59
2023-04-14T15:15:25.339Z,67
2023-04-14T15:16:32.215Z,64
2023-04-14T15:17:40.180Z,67
2023-04-14T15:18:46.968Z,69
2023-04-14T15:19:53.947Z,74
2023-04-14T15:21:00.827Z,71
2023-04-14T15:22:07.730Z,73
2023-04-14T15:23:14.568Z,81
2023-04-14T15:24:21.361Z,86
2023-04-14T15:25:28.335Z,81
2023-04-14T15:26:35.321Z,86
2023-04-14T15:27:42.155Z,91
2023-04-14T15:28:49.017Z,84
2023-04-14T15:29:55.818Z,89
2023-04-14T15:31:02.792Z,94
2023-04-14T15:32:09.726Z,102
2023-04-14T15:33:16.559Z,109
2023-04-14T15:34:23.580Z,113
2023-04-14T15:35:30.414Z,109
2023-04-14T15:36:39.959Z,121
2023-04-14T15:37:46.970Z,127
2023-04-14T15:38:53.806Z,116
2023-04-14T15:40:00.709Z,120
2023-04-14T15:41:07.752Z,121
2023-04-14T15:42:14.471Z,121
2023-04-14T15:43:21.510Z,124
2023-04-14T15:44:28.444Z,115
2023-04-14T15:45:35.346Z,118
2023-04-14T15:46:42.115Z,123
2023-04-14T15:47:48.882Z,119
2023-04-14T15:48:55.747Z,123
2023-04-14T15:50:07.528Z,124
2023-04-14T15:51:09.818Z,122
2023-04-14T15:52:16.644Z,116
2023-04-14T15:53:23.411Z,113
2023-04-14T15:54:30.272Z,118
2023-04-14T15:55:37.137Z,121
2023-04-14T15:56:44.073Z,113
2023-04-14T15:57:51.046Z,114
2023-04-14T15:58:57.691Z,117
2023-04-14T16:00:04.565Z,107
2023-04-14T16:01:11.814Z,110
2023-04-14T16:02:18.744Z,113
2023-04-14T16:03:25.754Z,107
2023-04-14T16:04:32.484Z,114
2023-04-14T16:05:39.200Z,111
2023-04-14T16:06:47.368Z,114
2023-04-14T16:07:53.149Z,122
2023-04-14T16:09:00.371Z,117
2023-04-14T16:10:07.154Z,113